createdAt,value
2019-05-02T00:01:31.233Z,80.21
2019-05-02T00:04:01.614Z,79.49
2019-05-02T00:06:38.000Z,79.88
2019-05-02T00:09:09.132Z,79.19
2019-05-02T00:11:40.033Z,78.70
2019-05-02T00:14:12.089Z,79.11
2019-05-02T00:16:45.024Z,78.30
2019-05-02T00:19:15.373Z,77.30
2019-05-02T00:21:45.887Z,77.20
2019-05-02T00:24:16.348Z,75.82
2019-05-02T00:26:47.022Z,77.19
2019-05-02T00:29:18.989Z,77.48
2019-05-02T00:31:49.985Z,76.73
2019-05-02T00:34:20.607Z,76.93
2019-05-02T00:36:51.045Z,77.33
2019-05-02T00:39:21.347Z,76.95
2019-05-02T00:41:51.704Z,76.58
2019-05-02T00:44:22.496Z,77.11
2019-05-02T00:46:54.475Z,76.12
2019-05-02T00:49:24.862Z,76.42
2019-05-02T00:51:56.524Z,77.60
2019-05-02T00:54:27.756Z,77.84
2019-05-02T00:56:58.547Z,78.36
2019-05-02T00:59:28.925Z,77.60
2019-05-02T01:02:15.530Z,78.08
2019-05-02T01:04:47.255Z,78.94
2019-05-02T01:07:20.268Z,79.82
2019-05-02T01:09:49.587Z,77.69
2019-05-02T01:12:26.637Z,78.61
2019-05-02T01:14:52.539Z,78.94
2019-05-02T01:17:26.156Z,79.50
2019-05-02T01:19:55.247Z,80.03
2019-05-02T01:22:25.854Z,79.46
2019-05-02T01:24:56.240Z,78.55
2019-05-02T01:27:48.755Z,78.95
2019-05-02T01:30:42.304Z,79.43
2019-05-02T01:33:36.872Z,79.90
2019-05-02T01:36:11.013Z,79.39
2019-05-02T01:38:44.702Z,80.39
2019-05-02T01:41:15.419Z,78.14
2019-05-02T01:43:46.223Z,78.11
2019-05-02T01:46:17.030Z,78.04
2019-05-02T01:48:49.196Z,77.57
2019-05-02T01:51:19.986Z,75.94
2019-05-02T01:53:50.311Z,75.62
2019-05-02T01:56:20.774Z,74.53
2019-05-02T01:58:52.949Z,75.08
2019-05-02T02:01:23.620Z,74.08
2019-05-02T02:03:53.927Z,74.08
2019-05-02T02:06:24.736Z,73.65
2019-05-02T02:08:55.003Z,74.53
2019-05-02T02:11:28.404Z,74.00
2019-05-02T02:14:00.081Z,73.53
2019-05-02T02:16:30.505Z,74.23
2019-05-02T02:19:11.352Z,74.26
2019-05-02T02:22:10.106Z,73.59
2019-05-02T02:24:44.129Z,73.20
2019-05-02T02:27:14.492Z,72.25
2019-05-02T02:29:45.365Z,72.69
2019-05-02T02:32:20.026Z,71.82
2019-05-02T02:34:48.175Z,72.41
2019-05-02T02:37:19.642Z,72.04
2019-05-02T02:39:54.013Z,72.70
2019-05-02T02:42:24.988Z,72.58
2019-05-02T02:45:18.470Z,72.80
2019-05-02T02:47:44.744Z,72.94
2019-05-02T02:50:15.757Z,72.64
2019-05-02T02:52:47.125Z,73.32
2019-05-02T02:55:22.564Z,74.26
2019-05-02T02:57:49.862Z,74.48
2019-05-02T03:00:20.661Z,74.64
2019-05-02T03:02:50.963Z,74.27
2019-05-02T03:05:26.315Z,74.63
2019-05-02T03:07:53.540Z,74.87
2019-05-02T03:10:24.353Z,73.62
2019-05-02T03:13:28.592Z,73.80
2019-05-02T03:16:00.430Z,73.13
2019-05-02T03:18:39.845Z,73.57
2019-05-02T03:21:05.371Z,74.18
2019-05-02T03:23:35.701Z,74.01
2019-05-02T03:26:07.808Z,73.55
2019-05-02T03:28:38.614Z,73.45
2019-05-02T03:31:24.178Z,72.62
2019-05-02T03:33:54.437Z,72.37
2019-05-02T03:36:29.593Z,71.87
2019-05-02T03:38:47.042Z,71.70
2019-05-02T03:41:20.711Z,71.89
2019-05-02T03:43:50.605Z,71.74
2019-05-02T03:46:22.711Z,70.98
2019-05-02T03:49:05.808Z,71.31
2019-05-02T03:51:26.641Z,70.89
2019-05-02T03:54:06.480Z,70.64
2019-05-02T03:56:29.361Z,70.49
2019-05-02T03:58:59.854Z,70.47
2019-05-02T04:01:34.748Z,69.94
2019-05-02T04:04:04.559Z,70.29
2019-05-02T04:06:36.176Z,69.51
2019-05-02T04:09:08.466Z,69.27
2019-05-02T04:11:40.890Z,69.12
2019-05-02T04:14:17.445Z,69.85
2019-05-02T04:16:48.496Z,69.89
2019-05-02T04:19:15.885Z,69.27
2019-05-02T04:21:51.235Z,68.93
2019-05-02T04:24:20.231Z,68.22
2019-05-02T04:26:56.085Z,68.34
2019-05-02T04:29:30.408Z,67.51
2019-05-02T04:31:56.435Z,67.88
2019-05-02T04:34:27.265Z,67.88
2019-05-02T04:37:01.099Z,67.39
2019-05-02T04:39:29.667Z,67.67
2019-05-02T04:42:09.365Z,67.72
2019-05-02T04:44:40.883Z,67.06
2019-05-02T04:47:13.832Z,67.29
2019-05-02T04:49:39.150Z,67.26
2019-05-02T04:52:12.334Z,66.67
2019-05-02T04:54:41.514Z,65.83
2019-05-02T04:57:11.773Z,66.10
2019-05-02T04:59:42.191Z,66.16
2019-05-02T05:02:12.876Z,65.23
2019-05-02T05:04:48.712Z,65.62
2019-05-02T05:07:17.635Z,64.88
2019-05-02T05:09:56.986Z,65.60
2019-05-02T05:12:19.552Z,64.87
2019-05-02T05:14:51.617Z,64.41
2019-05-02T05:17:32.733Z,65.08
2019-05-02T05:20:00.040Z,65.31
2019-05-02T05:22:29.924Z,64.92
2019-05-02T05:25:07.472Z,64.47
2019-05-02T05:27:37.890Z,64.97
2019-05-02T05:30:15.236Z,64.56
2019-05-02T05:32:40.641Z,64.63
2019-05-02T05:35:12.969Z,63.87
2019-05-02T05:37:51.507Z,62.75
2019-05-02T05:40:17.699Z,63.01
2019-05-02T05:42:48.210Z,61.90
2019-05-02T05:45:18.703Z,61.51
2019-05-02T05:47:52.406Z,61.65
2019-05-02T05:50:21.105Z,61.89
2019-05-02T05:52:51.926Z,61.77
2019-05-02T05:55:24.347Z,60.73
2019-05-02T05:58:00.497Z,60.70
2019-05-02T06:00:27.965Z,61.01
2019-05-02T06:03:10.179Z,59.53
2019-05-02T06:05:36.192Z,59.90
2019-05-02T06:08:03.194Z,59.35
2019-05-02T06:10:33.489Z,59.47
2019-05-02T06:13:05.335Z,59.49
2019-05-02T06:15:39.051Z,58.84
2019-05-02T06:18:08.415Z,59.22
2019-05-02T06:20:38.795Z,58.83
2019-05-02T06:23:09.219Z,58.31
2019-05-02T06:25:42.366Z,57.83
2019-05-02T06:28:11.525Z,57.72
2019-05-02T06:30:42.191Z,57.01
2019-05-02T06:33:12.476Z,55.65
2019-05-02T06:35:42.812Z,55.35
2019-05-02T06:38:13.516Z,54.79
2019-05-02T06:40:46.644Z,54.70
2019-05-02T06:43:17.065Z,54.85
2019-05-02T06:45:47.657Z,55.31
2019-05-02T06:48:19.091Z,54.23
2019-05-02T06:50:50.778Z,52.73
2019-05-02T06:53:21.495Z,51.61
2019-05-02T06:55:51.778Z,51.08
2019-05-02T06:58:22.258Z,49.79
2019-05-02T07:00:58.308Z,49.67
2019-05-02T07:03:27.514Z,50.53
2019-05-02T07:05:58.662Z,47.27
2019-05-02T07:08:30.005Z,48.55
2019-05-02T07:11:01.553Z,49.98
2019-05-02T07:13:36.347Z,48.14
2019-05-02T07:16:37.524Z,47.47
2019-05-02T07:18:58.909Z,46.18
2019-05-02T07:21:29.382Z,45.63
2019-05-02T07:24:00.129Z,46.67
2019-05-02T07:26:30.510Z,44.50
2019-05-02T07:29:01.173Z,45.04
2019-05-02T07:31:31.511Z,44.00
2019-05-02T07:34:01.892Z,44.20
2019-05-02T07:36:36.473Z,44.98
2019-05-02T07:39:06.768Z,44.16
2019-05-02T07:41:37.412Z,42.41
2019-05-02T07:44:08.121Z,41.77
2019-05-02T07:46:51.219Z,44.89
2019-05-02T07:49:10.545Z,43.10
2019-05-02T07:51:41.385Z,40.48
2019-05-02T07:54:11.865Z,41.39
2019-05-02T07:56:42.173Z,40.75
2019-05-02T07:59:12.959Z,41.42
2019-05-02T08:01:44.867Z,41.21
2019-05-02T08:04:15.851Z,41.31
2019-05-02T08:06:46.451Z,40.37
2019-05-02T08:09:16.956Z,40.41
2019-05-02T08:11:47.840Z,39.97
2019-05-02T08:14:18.187Z,41.27
2019-05-02T08:16:48.500Z,39.88
2019-05-02T08:19:19.161Z,38.20
2019-05-02T08:21:50.527Z,39.41
2019-05-02T08:24:20.817Z,39.23
2019-05-02T08:27:16.622Z,38.63
2019-05-02T08:29:47.237Z,37.42
2019-05-02T08:32:17.580Z,39.15
2019-05-02T08:34:52.050Z,38.43
2019-05-02T08:37:22.418Z,38.06
2019-05-02T08:39:52.395Z,38.11
2019-05-02T08:42:27.778Z,37.75
2019-05-02T08:45:01.118Z,36.88
2019-05-02T08:47:30.574Z,37.15
2019-05-02T08:50:01.090Z,35.13
2019-05-02T08:52:31.851Z,36.65
2019-05-02T08:55:04.301Z,37.76
2019-05-02T08:57:36.087Z,39.31
2019-05-02T09:00:09.013Z,38.55
2019-05-02T09:02:41.473Z,37.75
2019-05-02T09:05:12.237Z,37.60
2019-05-02T09:07:43.193Z,37.45
2019-05-02T09:10:13.990Z,36.03
2019-05-02T09:12:45.572Z,36.51
2019-05-02T09:15:17.037Z,37.20
2019-05-02T09:17:54.791Z,36.65
2019-05-02T09:20:21.471Z,36.24
2019-05-02T09:22:55.994Z,36.85
2019-05-02T09:25:24.754Z,36.72
2019-05-02T09:27:55.401Z,34.87
2019-05-02T09:30:26.260Z,35.25
2019-05-02T09:32:57.312Z,34.99
2019-05-02T09:35:30.141Z,34.53
2019-05-02T09:38:01.772Z,34.38
2019-05-02T09:40:32.437Z,35.25
2019-05-02T09:43:04.812Z,34.87
2019-05-02T09:45:37.370Z,33.90
2019-05-02T09:48:08.266Z,32.97
2019-05-02T09:50:41.976Z,32.81
2019-05-02T09:53:20.361Z,33.25
2019-05-02T09:55:50.332Z,32.80
2019-05-02T09:58:21.301Z,32.05
2019-05-02T10:01:01.977Z,33.25
2019-05-02T10:03:32.903Z,33.86
2019-05-02T10:06:03.610Z,33.41
2019-05-02T10:08:38.204Z,33.03
2019-05-02T10:11:06.634Z,33.24
2019-05-02T10:13:36.975Z,33.87
2019-05-02T10:16:07.602Z,32.11
2019-05-02T10:18:38.110Z,32.85
2019-05-02T10:21:13.447Z,31.47
2019-05-02T10:23:42.737Z,31.44
2019-05-02T10:26:19.810Z,31.43
2019-05-02T10:28:49.597Z,29.45
2019-05-02T10:31:17.737Z,29.45
2019-05-02T10:33:48.443Z,28.68
2019-05-02T10:36:19.881Z,28.56
2019-05-02T10:38:54.915Z,29.03
2019-05-02T10:41:23.326Z,27.66
2019-05-02T10:43:56.652Z,27.32
2019-05-02T10:46:38.011Z,27.32
2019-05-02T10:49:27.349Z,27.24
2019-05-02T10:51:57.791Z,28.27
2019-05-02T10:54:32.941Z,29.97
2019-05-02T10:57:02.291Z,29.63
2019-05-02T10:59:33.241Z,27.68
2019-05-02T11:02:22.808Z,28.39
2019-05-02T11:04:56.864Z,28.33
2019-05-02T11:07:27.278Z,26.58
2019-05-02T11:10:03.247Z,25.27
2019-05-02T11:12:46.668Z,27.95
2019-05-02T11:15:33.016Z,28.98
2019-05-02T11:18:05.224Z,27.47
2019-05-02T11:20:36.027Z,27.47
2019-05-02T11:23:06.467Z,27.41
2019-05-02T11:25:36.832Z,26.28
2019-05-02T11:28:07.433Z,26.72
2019-05-02T11:30:39.017Z,26.85
2019-05-02T11:33:09.418Z,26.66
2019-05-02T11:35:41.704Z,25.90
2019-05-02T11:38:25.532Z,24.96
2019-05-02T11:40:44.193Z,24.48
2019-05-02T11:43:14.599Z,25.63
2019-05-02T11:45:44.927Z,25.27
2019-05-02T11:48:15.226Z,24.41
2019-05-02T11:50:45.544Z,24.73
2019-05-02T11:53:24.841Z,23.01
2019-05-02T11:55:48.040Z,23.69
2019-05-02T11:58:18.325Z,22.90
2019-05-02T12:00:49.781Z,21.85
2019-05-02T12:03:45.265Z,22.78
2019-05-02T12:06:19.564Z,23.36
2019-05-02T12:08:49.459Z,24.20
2019-05-02T12:11:22.587Z,24.28
2019-05-02T12:13:56.959Z,23.78
2019-05-02T12:16:25.690Z,25.06
2019-05-02T12:19:08.550Z,25.92
2019-05-02T12:21:29.396Z,28.31
2019-05-02T12:24:01.646Z,30.14
2019-05-02T12:26:32.584Z,30.10
2019-05-02T12:29:02.955Z,29.81
2019-05-02T12:31:33.985Z,30.68
2019-05-02T12:34:06.398Z,31.38
2019-05-02T12:36:37.435Z,29.21
2019-05-02T12:39:08.360Z,29.85
2019-05-02T12:41:39.192Z,28.41
2019-05-02T12:44:11.712Z,28.24
2019-05-02T12:46:42.871Z,29.29
2019-05-02T12:49:24.791Z,27.74
2019-05-02T12:51:46.685Z,26.98
2019-05-02T12:54:17.371Z,28.26
2019-05-02T12:56:48.066Z,27.00
2019-05-02T12:59:18.477Z,27.40
2019-05-02T13:01:49.412Z,25.87
2019-05-02T13:04:20.116Z,26.24
2019-05-02T13:06:52.859Z,26.26
2019-05-02T13:09:23.538Z,26.42
2019-05-02T13:12:14.231Z,26.74
2019-05-02T13:14:44.975Z,27.63
2019-05-02T13:17:16.149Z,25.14
2019-05-02T13:19:55.531Z,25.87
2019-05-02T13:22:36.357Z,26.83
2019-05-02T13:25:14.288Z,29.22
2019-05-02T13:27:48.146Z,29.44
2019-05-02T13:30:46.376Z,29.74
2019-05-02T13:33:22.721Z,31.01
2019-05-02T13:35:56.593Z,30.45
2019-05-02T13:38:27.772Z,30.52
2019-05-02T13:40:58.666Z,29.61
2019-05-02T13:43:34.574Z,28.50
2019-05-02T13:46:22.149Z,27.03
2019-05-02T13:48:52.971Z,27.00
2019-05-02T13:51:24.155Z,28.17
2019-05-02T13:54:02.391Z,28.73
2019-05-02T13:56:52.696Z,27.23
2019-05-02T13:59:24.191Z,28.31
2019-05-02T14:01:55.787Z,27.89
2019-05-02T14:04:27.171Z,28.85
2019-05-02T14:06:58.113Z,27.83
2019-05-02T14:09:57.956Z,28.30
2019-05-02T14:12:56.332Z,28.19
2019-05-02T14:15:32.498Z,27.24
2019-05-02T14:18:03.618Z,27.20
2019-05-02T14:20:37.267Z,28.20
2019-05-02T14:23:07.607Z,27.50
2019-05-02T14:25:38.554Z,27.65
2019-05-02T14:28:09.106Z,29.72
2019-05-02T14:30:43.601Z,28.74
2019-05-02T14:33:19.421Z,30.19
2019-05-02T14:35:52.584Z,30.06
2019-05-02T14:38:24.049Z,30.27
2019-05-02T14:41:06.707Z,29.33
2019-05-02T14:43:53.213Z,29.25
2019-05-02T14:46:34.024Z,28.49
2019-05-02T14:49:00.098Z,27.66
2019-05-02T14:51:32.747Z,28.50
2019-05-02T14:54:08.097Z,29.63
2019-05-02T14:57:01.995Z,27.99
2019-05-02T14:59:33.073Z,28.39
2019-05-02T15:02:07.744Z,28.37
2019-05-02T15:04:44.433Z,27.63
2019-05-02T15:07:12.967Z,27.47
2019-05-02T15:09:43.916Z,28.39
2019-05-02T15:12:18.964Z,28.86
2019-05-02T15:14:54.024Z,27.64
2019-05-02T15:17:22.738Z,27.42
2019-05-02T15:19:53.613Z,27.18
2019-05-02T15:22:27.508Z,27.96
2019-05-02T15:24:57.075Z,28.19
2019-05-02T15:27:39.384Z,28.54
2019-05-02T15:30:05.556Z,27.56
2019-05-02T15:32:44.943Z,27.92
2019-05-02T15:35:27.843Z,27.61
2019-05-02T15:38:02.640Z,27.04
2019-05-02T15:43:09.018Z,27.65
2019-05-02T15:45:36.765Z,27.08
2019-05-02T15:48:07.567Z,27.10
2019-05-02T15:50:48.748Z,26.63
2019-05-02T15:53:23.675Z,26.84
2019-05-02T15:55:54.651Z,27.11
2019-05-02T15:58:27.855Z,26.05
2019-05-02T16:01:12.037Z,26.38
2019-05-02T16:03:46.173Z,27.20
2019-05-02T16:06:21.068Z,26.37
2019-05-02T16:08:51.766Z,25.88
2019-05-02T16:11:23.037Z,26.67
2019-05-02T16:13:56.209Z,27.35
2019-05-02T16:16:27.050Z,26.14
2019-05-02T16:18:57.989Z,26.42
2019-05-02T16:21:43.624Z,27.54
2019-05-02T16:24:23.014Z,27.19
2019-05-02T16:26:57.184Z,27.89
2019-05-02T16:29:29.134Z,27.99
2019-05-02T16:32:22.219Z,28.49
2019-05-02T16:34:55.800Z,28.33
2019-05-02T16:37:26.907Z,28.29
2019-05-02T16:39:58.425Z,29.96
2019-05-02T16:42:29.848Z,30.65
2019-05-02T16:45:02.658Z,31.44
2019-05-02T16:47:33.332Z,33.63
2019-05-02T16:50:04.664Z,33.92
2019-05-02T16:52:38.027Z,35.42
2019-05-02T16:55:15.127Z,35.20
2019-05-02T16:57:44.326Z,35.85
2019-05-02T17:00:19.597Z,36.35
2019-05-02T17:02:50.906Z,36.85
2019-05-02T17:05:22.264Z,37.41
2019-05-02T17:08:02.119Z,38.11
2019-05-02T17:10:54.564Z,38.41
2019-05-02T17:13:27.327Z,37.90
2019-05-02T17:15:56.237Z,38.21
2019-05-02T17:18:27.692Z,39.12
2019-05-02T17:20:59.420Z,39.44
2019-05-02T17:23:37.534Z,40.41
2019-05-02T17:26:06.249Z,41.26
2019-05-02T17:28:37.961Z,41.75
2019-05-02T17:31:10.766Z,42.56
2019-05-02T17:33:46.174Z,42.35
2019-05-02T17:36:23.360Z,42.21
2019-05-02T17:38:53.890Z,42.54
2019-05-02T17:41:22.739Z,42.95
2019-05-02T17:43:57.535Z,43.39
2019-05-02T17:46:27.178Z,42.90
2019-05-02T17:48:57.959Z,43.31
2019-05-02T17:51:37.845Z,43.26
2019-05-02T17:54:09.195Z,43.82
2019-05-02T17:56:39.525Z,44.13
2019-05-02T17:59:11.691Z,43.89
2019-05-02T18:01:42.376Z,43.83
2019-05-02T18:04:16.379Z,44.14
2019-05-02T18:06:46.809Z,44.48
2019-05-02T18:09:17.937Z,45.02
2019-05-02T18:11:48.350Z,44.77
2019-05-02T18:14:21.195Z,44.51
2019-05-02T18:16:51.892Z,44.37
2019-05-02T18:19:24.544Z,44.18
2019-05-02T18:21:58.137Z,44.55
2019-05-02T18:24:26.950Z,44.87
2019-05-02T18:26:57.505Z,45.12
2019-05-02T18:29:27.937Z,45.40
2019-05-02T18:31:58.468Z,45.28
2019-05-02T18:34:28.875Z,45.73
2019-05-02T18:37:03.005Z,45.89
2019-05-02T18:39:34.918Z,45.90
2019-05-02T18:42:03.719Z,46.81
2019-05-02T18:44:34.019Z,46.75
2019-05-02T18:47:04.621Z,47.02
2019-05-02T18:49:35.224Z,47.00
2019-05-02T18:52:05.886Z,46.77
2019-05-02T18:54:38.604Z,46.87
2019-05-02T18:57:09.580Z,47.18
2019-05-02T18:59:39.879Z,47.35
2019-05-02T19:02:10.723Z,47.54
2019-05-02T19:04:42.339Z,47.51
2019-05-02T19:07:15.833Z,48.07
2019-05-02T19:09:50.959Z,48.60
2019-05-02T19:12:22.439Z,48.77
2019-05-02T19:14:49.433Z,49.05
2019-05-02T19:17:21.945Z,49.24
2019-05-02T19:19:52.736Z,49.36
2019-05-02T19:22:23.085Z,49.79
2019-05-02T19:24:53.800Z,49.62
2019-05-02T19:27:42.946Z,49.30
2019-05-02T19:30:13.691Z,49.22
2019-05-02T19:32:44.203Z,49.55
2019-05-02T19:35:15.133Z,49.04
2019-05-02T19:37:47.755Z,48.67
2019-05-02T19:40:26.887Z,48.95
2019-05-02T19:42:57.326Z,48.60
2019-05-02T19:45:25.103Z,48.60
2019-05-02T19:47:57.677Z,48.29
2019-05-02T19:50:43.770Z,48.21
2019-05-02T19:53:17.938Z,47.63
2019-05-02T19:55:45.271Z,47.98
2019-05-02T19:58:16.143Z,48.40
2019-05-02T20:00:46.587Z,48.35
2019-05-02T20:03:21.883Z,48.40
2019-05-02T20:05:51.787Z,48.31
2019-05-02T20:08:24.592Z,48.05
2019-05-02T20:10:58.312Z,48.36
2019-05-02T20:13:29.663Z,48.83
2019-05-02T20:16:05.901Z,49.08
2019-05-02T20:18:42.389Z,49.07
2019-05-02T20:21:27.242Z,48.83
2019-05-02T20:23:52.150Z,48.85
2019-05-02T20:26:22.603Z,48.90
2019-05-02T20:28:53.462Z,48.92
2019-05-02T20:31:24.720Z,48.59
2019-05-02T20:33:55.767Z,48.94
2019-05-02T20:36:26.056Z,49.00
2019-05-02T20:38:56.456Z,49.57
2019-05-02T20:41:27.175Z,49.78
2019-05-02T20:43:57.494Z,50.14
2019-05-02T20:46:28.064Z,50.52
2019-05-02T20:48:58.941Z,50.18
2019-05-02T20:51:29.310Z,51.29
2019-05-02T20:54:01.557Z,51.66
2019-05-02T20:56:32.199Z,51.65
2019-05-02T20:59:02.575Z,51.04
2019-05-02T21:01:32.960Z,51.19
2019-05-02T21:04:03.660Z,51.40
2019-05-02T21:06:46.297Z,51.38
2019-05-02T21:09:35.872Z,51.37
2019-05-02T21:12:07.533Z,51.96
2019-05-02T21:14:37.927Z,52.02
2019-05-02T21:17:08.574Z,51.39
2019-05-02T21:19:39.045Z,51.09
2019-05-02T21:22:15.956Z,50.82
2019-05-02T21:24:46.650Z,50.35
2019-05-02T21:27:17.171Z,50.86
2019-05-02T21:29:47.500Z,50.62
2019-05-02T21:32:18.243Z,50.87
2019-05-02T21:34:48.620Z,51.49
2019-05-02T21:37:19.004Z,51.08
2019-05-02T21:39:49.318Z,51.11
2019-05-02T21:42:19.746Z,51.69
2019-05-02T21:44:52.067Z,51.98
2019-05-02T21:47:22.676Z,51.54
2019-05-02T21:50:05.730Z,51.09
2019-05-02T21:52:52.568Z,51.53
2019-05-02T21:55:45.319Z,51.37
2019-05-02T21:58:15.619Z,51.53
2019-05-02T22:00:55.433Z,51.42
2019-05-02T22:03:27.575Z,51.11
2019-05-02T22:05:57.888Z,50.74
2019-05-02T22:08:29.595Z,51.04
2019-05-02T22:11:00.962Z,51.50
2019-05-02T22:13:31.712Z,51.25
2019-05-02T22:16:02.430Z,51.18
2019-05-02T22:18:32.675Z,51.30
2019-05-02T22:21:03.770Z,51.07
2019-05-02T22:23:34.463Z,51.63
2019-05-02T22:26:04.794Z,51.94
2019-05-02T22:28:35.372Z,51.79
2019-05-02T22:31:06.126Z,52.08
2019-05-02T22:33:36.413Z,52.47
2019-05-02T22:36:06.770Z,51.84
2019-05-02T22:39:02.238Z,52.51
2019-05-02T22:41:34.165Z,52.93
2019-05-02T22:44:04.941Z,53.78
2019-05-02T22:46:43.444Z,54.24
2019-05-02T22:49:15.087Z,54.96
2019-05-02T22:51:46.036Z,55.22
2019-05-02T22:54:26.840Z,55.72
2019-05-02T22:56:49.441Z,56.23
2019-05-02T22:59:23.732Z,57.06
2019-05-02T23:01:52.730Z,57.36
2019-05-02T23:04:23.667Z,56.96
2019-05-02T23:06:55.173Z,57.31
2019-05-02T23:09:25.614Z,57.61
2019-05-02T23:11:55.939Z,58.60
2019-05-02T23:14:26.645Z,60.47
2019-05-02T23:16:57.065Z,61.16
2019-05-02T23:19:27.769Z,60.76
2019-05-02T23:21:59.220Z,59.97
2019-05-02T23:24:47.402Z,59.58
2019-05-02T23:27:24.884Z,60.12
2019-05-02T23:29:55.428Z,61.17
2019-05-02T23:32:25.773Z,61.01
2019-05-02T23:34:56.430Z,61.24
2019-05-02T23:37:26.850Z,61.49
2019-05-02T23:39:57.236Z,61.49
2019-05-02T23:42:28.704Z,61.88
2019-05-02T23:44:59.524Z,62.81
2019-05-02T23:47:29.852Z,63.10
2019-05-02T23:50:00.271Z,63.22
2019-05-02T23:52:31.614Z,64.47
2019-05-02T23:55:02.977Z,64.09
2019-05-02T23:57:33.446Z,64.64
